Time;durP1;ratioP1;P1;durP2;ratioP2;P2;SDS_P1;SDS_P2;PMS_P1;PMS_P2;Temp;Humidity;BMP_temperature;BMP_pressure;BME280_temperature;BME280_humidity;BME280_pressure;Samples;Min_cycle;Max_cycle;Signal;HPM_P1;HPM_P2
2021/11/20 00:01:49;;;;;;;;;;;11.90;99.90;;;;;;5026299;28;19913;-66
2021/11/20 00:04:14;;;;;;;;;;;11.90;99.90;;;;;;5010594;28;19928;-67
2021/11/20 00:06:41;;;;;;;;;;;11.90;99.90;;;;;;5011045;28;19959;-66
2021/11/20 00:09:08;;;;;;;;;;;11.80;99.90;;;;;;4990956;28;19922;-66
2021/11/20 00:11:34;;;;;;;;;;;11.80;99.90;;;;;;5008271;28;19918;-66
2021/11/20 00:14:00;;;;;;;;;;;11.80;99.90;;;;;;5008883;28;19949;-67
2021/11/20 00:16:26;;;;;;;;;;;11.70;99.90;;;;;;5011615;28;19953;-66
2021/11/20 00:18:52;;;;;;;;;;;11.70;99.90;;;;;;5008025;28;19924;-67
2021/11/20 00:21:20;;;;;;;;;;;11.70;99.90;;;;;;5010823;28;19939;-66
2021/11/20 00:23:51;;;;;;;;;;;11.70;99.90;;;;;;5007538;28;19924;-65
2021/11/20 00:26:19;;;;;;;;;;;11.70;99.90;;;;;;5006924;28;20254;-67
2021/11/20 00:31:25;;;;;;;;;;;11.80;99.90;;;;;;5007255;28;20393;-67
2021/11/20 00:33:51;;;;;;;;;;;12.00;99.90;;;;;;5006191;28;19948;-66
2021/11/20 00:36:16;;;;;;;;;;;12.00;99.90;;;;;;5007206;28;19964;-66
2021/11/20 00:38:43;;;;;;;;;;;11.80;99.90;;;;;;5005046;28;19928;-65
2021/11/20 00:41:11;;;;;;;;;;;11.80;99.90;;;;;;5007552;28;19914;-66
2021/11/20 00:43:37;;;;;;;;;;;11.70;99.90;;;;;;5005494;28;19925;-65
2021/11/20 00:46:04;;;;;;;;;;;11.60;99.90;;;;;;5007490;28;19971;-66
2021/11/20 00:48:30;;;;;;;;;;;11.70;99.90;;;;;;5006854;28;19967;-66
2021/11/20 00:50:58;;;;;;;;;;;11.80;99.90;;;;;;5007888;28;19989;-65
2021/11/20 00:53:24;;;;;;;;;;;11.90;99.90;;;;;;5006735;28;20087;-67
2021/11/20 00:55:50;;;;;;;;;;;11.90;99.90;;;;;;5007245;28;20000;-66
2021/11/20 00:58:15;;;;;;;;;;;11.80;99.90;;;;;;5008914;28;19914;-65
2021/11/20 01:00:43;;;;;;;;;;;11.70;99.90;;;;;;4989733;28;19928;-66
2021/11/20 01:03:09;;;;;;;;;;;11.70;99.90;;;;;;5014462;28;19939;-66
2021/11/20 01:05:35;;;;;;;;;;;11.60;99.90;;;;;;4999961;28;20003;-66
2021/11/20 01:08:00;;;;;;;;;;;11.50;99.90;;;;;;5009841;28;19913;-66
2021/11/20 01:10:28;;;;;;;;;;;11.50;99.90;;;;;;5008596;28;19913;-65
2021/11/20 01:12:53;;;;;;;;;;;11.50;99.90;;;;;;5008391;28;20016;-66
2021/11/20 01:15:30;;;;;;;;;;;11.50;99.90;;;;;;5014070;28;20352;-66
2021/11/20 01:17:56;;;;;;;;;;;11.50;99.90;;;;;;5006950;28;20389;-66
2021/11/20 01:20:21;;;;;;;;;;;11.50;99.90;;;;;;5027892;28;19916;-67
2021/11/20 01:22:47;;;;;;;;;;;11.50;99.90;;;;;;5028065;28;19957;-66
2021/11/20 01:25:13;;;;;;;;;;;11.50;99.90;;;;;;5027607;28;19967;-66
2021/11/20 01:27:39;;;;;;;;;;;11.60;99.90;;;;;;5009047;28;19971;-65
2021/11/20 01:30:06;;;;;;;;;;;11.70;99.90;;;;;;5008929;28;19945;-66
2021/11/20 01:32:31;;;;;;;;;;;11.70;99.90;;;;;;4990081;28;20502;-65
2021/11/20 01:34:57;;;;;;;;;;;11.70;99.90;;;;;;5008189;28;20011;-65
2021/11/20 01:37:22;;;;;;;;;;;11.70;99.90;;;;;;5013288;28;19913;-67
2021/11/20 01:39:48;;;;;;;;;;;11.70;99.90;;;;;;5016779;28;19935;-65
2021/11/20 01:42:16;;;;;;;;;;;11.80;99.90;;;;;;5009730;28;19921;-67
2021/11/20 01:44:47;;;;;;;;;;;11.80;99.90;;;;;;5012753;28;19948;-67
2021/11/20 01:47:15;;;;;;;;;;;11.80;99.90;;;;;;5010489;28;19913;-66
2021/11/20 01:49:50;;;;;;;;;;;11.70;99.90;;;;;;5008200;28;19953;-67
2021/11/20 01:52:25;;;;;;;;;;;11.70;99.90;;;;;;5005102;28;19954;-66
2021/11/20 01:54:58;;;;;;;;;;;11.70;99.90;;;;;;5008168;28;19948;-66
2021/11/20 01:57:41;;;;;;;;;;;11.70;99.90;;;;;;5006868;28;20405;-67
2021/11/20 02:00:19;;;;;;;;;;;11.70;99.90;;;;;;4996577;28;19917;-67
2021/11/20 02:02:47;;;;;;;;;;;11.90;99.90;;;;;;5011430;28;19913;-66
2021/11/20 02:05:28;;;;;;;;;;;11.90;99.90;;;;;;5013577;28;20370;-66
2021/11/20 02:08:03;;;;;;;;;;;11.90;99.90;;;;;;5011678;28;19994;-66
2021/11/20 02:10:39;;;;;;;;;;;11.80;99.90;;;;;;5014140;28;19917;-67
2021/11/20 02:13:07;;;;;;;;;;;11.80;99.90;;;;;;5012502;28;19914;-68
2021/11/20 02:15:36;;;;;;;;;;;11.80;99.90;;;;;;5011373;28;19913;-68
2021/11/20 02:18:03;;;;;;;;;;;11.80;99.90;;;;;;5023349;28;20454;-67
2021/11/20 02:20:32;;;;;;;;;;;11.80;99.90;;;;;;5020150;28;19927;-66
2021/11/20 02:22:57;;;;;;;;;;;11.80;99.90;;;;;;5011367;28;19936;-67
2021/11/20 02:25:23;;;;;;;;;;;11.70;99.90;;;;;;5011053;28;19917;-69
2021/11/20 02:27:50;;;;;;;;;;;11.70;99.90;;;;;;5010178;28;19957;-67
2021/11/20 02:30:21;;;;;;;;;;;11.70;99.90;;;;;;5014221;28;20016;-67
2021/11/20 02:32:49;;;;;;;;;;;11.80;99.90;;;;;;5011842;28;19909;-67
2021/11/20 02:35:18;;;;;;;;;;;11.80;99.90;;;;;;5012124;28;19917;-68
2021/11/20 02:37:44;;;;;;;;;;;11.80;99.90;;;;;;5013120;28;20032;-66
2021/11/20 02:40:10;;;;;;;;;;;11.70;99.90;;;;;;5012505;28;19920;-65
2021/11/20 02:42:36;;;;;;;;;;;11.70;99.90;;;;;;5012951;28;20143;-67
2021/11/20 02:45:09;;;;;;;;;;;11.70;99.90;;;;;;5011958;28;19965;-67
2021/11/20 02:47:37;;;;;;;;;;;11.70;99.90;;;;;;5012664;28;19975;-68
2021/11/20 02:50:03;;;;;;;;;;;11.60;99.90;;;;;;5011704;28;20457;-67
2021/11/20 02:52:29;;;;;;;;;;;11.70;99.90;;;;;;5011550;28;19973;-67
2021/11/20 02:54:54;;;;;;;;;;;11.60;99.90;;;;;;5018698;28;19929;-67
2021/11/20 02:57:25;;;;;;;;;;;11.60;99.90;;;;;;5014563;28;19940;-68
2021/11/20 02:59:51;;;;;;;;;;;11.70;99.90;;;;;;5018349;28;19917;-66
2021/11/20 03:02:16;;;;;;;;;;;11.70;99.90;;;;;;5022511;28;20440;-68
2021/11/20 03:04:43;;;;;;;;;;;11.60;99.90;;;;;;5030013;28;20447;-66
2021/11/20 03:07:09;;;;;;;;;;;11.60;99.90;;;;;;5010759;28;19909;-67
2021/11/20 03:09:35;;;;;;;;;;;11.70;99.90;;;;;;5010135;28;19932;-67
2021/11/20 03:12:02;;;;;;;;;;;11.70;99.90;;;;;;5010732;28;19916;-67
2021/11/20 03:14:27;;;;;;;;;;;11.70;99.90;;;;;;5021103;28;19956;-66
2021/11/20 03:16:55;;;;;;;;;;;11.60;99.90;;;;;;5020747;28;19972;-66
2021/11/20 03:19:21;;;;;;;;;;;11.60;99.90;;;;;;5011321;28;19932;-66
2021/11/20 03:21:49;;;;;;;;;;;11.60;99.90;;;;;;5012954;28;20369;-66
2021/11/20 03:24:16;;;;;;;;;;;11.70;99.90;;;;;;5014586;28;19933;-68
2021/11/20 03:26:42;;;;;;;;;;;11.70;99.90;;;;;;5009526;28;19961;-67
2021/11/20 03:29:08;;;;;;;;;;;11.70;99.90;;;;;;5009267;28;19960;-67
2021/11/20 03:31:33;;;;;;;;;;;11.60;99.90;;;;;;5020948;28;19913;-67
2021/11/20 03:33:59;;;;;;;;;;;11.50;99.90;;;;;;5010051;28;20000;-66
2021/11/20 03:36:24;;;;;;;;;;;11.50;99.90;;;;;;5010060;28;19917;-66
2021/11/20 03:38:50;;;;;;;;;;;11.50;99.90;;;;;;5010703;28;20375;-67
2021/11/20 03:41:15;;;;;;;;;;;11.40;99.90;;;;;;5022417;28;19913;-67
2021/11/20 03:43:41;;;;;;;;;;;11.50;99.90;;;;;;5009564;28;20405;-66
2021/11/20 03:46:07;;;;;;;;;;;11.50;99.90;;;;;;5022501;28;19913;-67
2021/11/20 03:48:32;;;;;;;;;;;11.50;99.90;;;;;;5028404;28;19923;-68
2021/11/20 03:50:58;;;;;;;;;;;11.50;99.90;;;;;;5028558;28;19924;-67
2021/11/20 03:53:23;;;;;;;;;;;11.50;99.90;;;;;;5024741;28;20004;-66
2021/11/20 03:55:50;;;;;;;;;;;11.40;99.90;;;;;;5009194;28;20290;-67
2021/11/20 03:58:17;;;;;;;;;;;11.50;99.90;;;;;;5027418;28;19917;-68
2021/11/20 04:00:54;;;;;;;;;;;11.40;99.90;;;;;;5014288;28;19913;-68
2021/11/20 04:03:22;;;;;;;;;;;11.40;99.90;;;;;;5009450;28;19959;-67
2021/11/20 04:05:49;;;;;;;;;;;11.40;99.90;;;;;;5017399;28;20282;-66
2021/11/20 04:08:14;;;;;;;;;;;11.30;99.90;;;;;;5008906;28;20309;-67
2021/11/20 04:10:40;;;;;;;;;;;11.30;99.90;;;;;;5019488;28;19917;-66
2021/11/20 04:13:05;;;;;;;;;;;11.30;99.90;;;;;;5029137;28;19917;-67
2021/11/20 04:15:31;;;;;;;;;;;11.30;99.90;;;;;;5020673;28;20020;-68
2021/11/20 04:17:56;;;;;;;;;;;11.40;99.90;;;;;;5029010;28;19968;-66
2021/11/20 04:20:23;;;;;;;;;;;11.40;99.90;;;;;;5030655;28;19976;-68
2021/11/20 04:22:49;;;;;;;;;;;11.50;99.90;;;;;;5001429;28;20437;-68
2021/11/20 04:25:15;;;;;;;;;;;11.60;99.90;;;;;;5029142;28;20352;-66
2021/11/20 04:27:41;;;;;;;;;;;11.60;99.90;;;;;;5016695;28;19989;-68
2021/11/20 04:30:08;;;;;;;;;;;11.50;99.90;;;;;;5010155;28;19918;-66
2021/11/20 04:32:34;;;;;;;;;;;11.50;99.90;;;;;;5009265;28;19909;-67
2021/11/20 04:34:59;;;;;;;;;;;11.40;99.90;;;;;;5008170;28;19924;-67
2021/11/20 04:37:25;;;;;;;;;;;11.50;99.90;;;;;;5022959;28;19924;-66
2021/11/20 04:39:50;;;;;;;;;;;11.60;99.90;;;;;;5011979;28;20302;-66
2021/11/20 04:42:16;;;;;;;;;;;11.60;99.90;;;;;;4992219;28;19936;-67
2021/11/20 04:44:42;;;;;;;;;;;11.40;99.90;;;;;;4990352;28;19929;-67
2021/11/20 04:47:07;;;;;;;;;;;11.40;99.90;;;;;;5009120;28;19913;-67
2021/11/20 04:49:33;;;;;;;;;;;11.40;99.90;;;;;;5007821;28;19924;-66
2021/11/20 04:51:58;;;;;;;;;;;11.40;99.90;;;;;;5025511;28;20421;-67
2021/11/20 04:54:24;;;;;;;;;;;11.50;99.90;;;;;;5010148;28;20003;-67
2021/11/20 04:56:49;;;;;;;;;;;11.50;99.90;;;;;;5009608;28;19913;-68
2021/11/20 04:59:15;;;;;;;;;;;11.50;99.90;;;;;;5014978;28;19952;-68
2021/11/20 05:01:40;;;;;;;;;;;11.40;99.90;;;;;;5014301;28;20461;-67
2021/11/20 05:04:06;;;;;;;;;;;11.40;99.90;;;;;;5015469;28;19909;-69
2021/11/20 05:06:33;;;;;;;;;;;11.40;99.90;;;;;;5013114;28;19983;-66
2021/11/20 05:08:59;;;;;;;;;;;11.40;99.90;;;;;;5008541;28;19921;-66
2021/11/20 05:11:29;;;;;;;;;;;11.30;99.90;;;;;;5008581;28;20229;-66
2021/11/20 05:13:55;;;;;;;;;;;11.20;99.90;;;;;;4990381;28;19966;-66
2021/11/20 05:16:21;;;;;;;;;;;11.30;99.90;;;;;;5019067;28;19933;-67
2021/11/20 05:18:46;;;;;;;;;;;11.40;99.90;;;;;;5022156;28;20370;-67
2021/11/20 05:21:13;;;;;;;;;;;11.40;99.90;;;;;;5008223;28;19958;-67
2021/11/20 05:23:40;;;;;;;;;;;11.40;99.90;;;;;;5013288;28;19920;-66
2021/11/20 05:26:06;;;;;;;;;;;11.40;99.90;;;;;;5027511;28;20432;-67
2021/11/20 05:28:31;;;;;;;;;;;11.40;99.90;;;;;;5027214;28;19963;-66
2021/11/20 05:30:58;;;;;;;;;;;11.50;99.90;;;;;;5026951;28;19948;-68
2021/11/20 05:33:35;;;;;;;;;;;11.40;99.90;;;;;;5010127;28;19913;-67
2021/11/20 05:36:02;;;;;;;;;;;11.30;99.90;;;;;;5020440;28;20250;-66
2021/11/20 05:38:27;;;;;;;;;;;11.20;99.90;;;;;;5012580;28;19913;-67
2021/11/20 05:40:53;;;;;;;;;;;11.30;99.90;;;;;;5023273;28;19913;-68
2021/11/20 05:43:19;;;;;;;;;;;11.40;99.90;;;;;;5018191;28;20425;-67
2021/11/20 05:45:47;;;;;;;;;;;11.40;99.90;;;;;;5022612;28;19924;-66
2021/11/20 05:48:13;;;;;;;;;;;11.30;99.90;;;;;;5020376;28;19971;-66
2021/11/20 05:50:38;;;;;;;;;;;11.30;99.90;;;;;;5021173;28;19914;-66
2021/11/20 05:53:08;;;;;;;;;;;11.10;99.90;;;;;;5017374;28;19956;-66
2021/11/20 05:55:34;;;;;;;;;;;11.00;99.90;;;;;;5031702;28;19909;-65
2021/11/20 05:57:59;;;;;;;;;;;10.90;99.90;;;;;;5029642;28;19920;-66
2021/11/20 06:00:27;;;;;;;;;;;10.90;99.90;;;;;;5023942;28;19924;-66
2021/11/20 06:02:53;;;;;;;;;;;11.00;99.90;;;;;;5012042;28;19921;-65
2021/11/20 06:05:19;;;;;;;;;;;11.00;99.90;;;;;;5011162;28;19913;-67
2021/11/20 06:07:44;;;;;;;;;;;11.00;99.90;;;;;;5011719;28;19936;-66
2021/11/20 06:10:10;;;;;;;;;;;11.10;99.90;;;;;;5010902;28;19972;-67
2021/11/20 06:12:35;;;;;;;;;;;11.00;99.90;;;;;;5011568;28;19921;-66
2021/11/20 06:15:01;;;;;;;;;;;11.00;99.90;;;;;;5011282;28;20016;-66
2021/11/20 06:17:26;;;;;;;;;;;11.00;99.90;;;;;;5020498;28;20064;-67
2021/11/20 06:19:52;;;;;;;;;;;11.00;99.90;;;;;;5010971;28;20278;-66
2021/11/20 06:22:20;;;;;;;;;;;11.00;99.90;;;;;;5013271;28;19999;-65
2021/11/20 06:24:46;;;;;;;;;;;11.10;99.90;;;;;;5030483;28;19917;-65
2021/11/20 06:27:11;;;;;;;;;;;11.10;99.90;;;;;;5022993;28;20397;-66
2021/11/20 06:29:37;;;;;;;;;;;11.10;99.90;;;;;;5012483;28;20059;-67
2021/11/20 06:32:03;;;;;;;;;;;11.00;99.90;;;;;;5016084;28;19925;-66
2021/11/20 06:34:28;;;;;;;;;;;11.00;99.90;;;;;;5011491;28;19913;-65
2021/11/20 06:36:53;;;;;;;;;;;11.00;99.90;;;;;;5010568;28;19922;-65
2021/11/20 06:39:19;;;;;;;;;;;11.10;99.90;;;;;;5011267;28;20008;-68
2021/11/20 06:41:44;;;;;;;;;;;11.20;99.90;;;;;;5029075;28;20419;-66
2021/11/20 06:44:10;;;;;;;;;;;11.10;99.90;;;;;;5030854;28;20420;-65
2021/11/20 06:46:36;;;;;;;;;;;10.90;99.90;;;;;;5019687;28;19917;-66
2021/11/20 06:49:02;;;;;;;;;;;11.00;99.90;;;;;;5027550;28;20174;-67
2021/11/20 06:51:27;;;;;;;;;;;11.00;99.90;;;;;;5003500;28;20424;-65
2021/11/20 06:53:53;;;;;;;;;;;11.00;99.90;;;;;;5010912;28;19935;-66
2021/11/20 06:56:28;;;;;;;;;;;11.00;99.90;;;;;;5017558;28;19964;-66
2021/11/20 07:01:39;;;;;;;;;;;10.90;99.90;;;;;;5017406;28;20189;-65
2021/11/20 07:04:07;;;;;;;;;;;11.10;99.90;;;;;;5008495;28;20333;-67
2021/11/20 07:06:34;;;;;;;;;;;11.10;99.90;;;;;;5010378;28;19914;-66
2021/11/20 07:09:00;;;;;;;;;;;11.10;99.90;;;;;;5012045;28;20004;-66
2021/11/20 07:11:26;;;;;;;;;;;11.10;99.90;;;;;;5028013;28;20024;-66
2021/11/20 07:13:52;;;;;;;;;;;11.20;99.90;;;;;;5025452;28;19917;-66
2021/11/20 07:16:20;;;;;;;;;;;11.20;99.90;;;;;;5016396;28;19919;-65
2021/11/20 07:18:45;;;;;;;;;;;11.20;99.90;;;;;;5019947;28;19913;-65
2021/11/20 07:21:11;;;;;;;;;;;11.30;99.90;;;;;;5010857;28;19921;-66
2021/11/20 07:23:38;;;;;;;;;;;11.20;99.90;;;;;;5010271;28;19909;-66
2021/11/20 07:26:04;;;;;;;;;;;11.20;99.90;;;;;;4994921;28;19921;-65
2021/11/20 07:28:30;;;;;;;;;;;11.10;99.90;;;;;;5013270;28;19940;-65
2021/11/20 07:30:55;;;;;;;;;;;11.30;99.90;;;;;;5011855;28;20378;-66
2021/11/20 07:33:21;;;;;;;;;;;11.30;99.90;;;;;;5011205;28;20187;-65
2021/11/20 07:35:48;;;;;;;;;;;11.30;99.90;;;;;;5011794;28;19910;-66
2021/11/20 07:38:16;;;;;;;;;;;11.30;99.90;;;;;;5011100;28;19918;-65
2021/11/20 07:40:42;;;;;;;;;;;11.40;99.90;;;;;;5009555;28;19909;-66
2021/11/20 07:43:07;;;;;;;;;;;11.50;99.90;;;;;;5012294;28;19917;-65
2021/11/20 07:45:33;;;;;;;;;;;11.50;99.90;;;;;;5008877;28;19910;-65
2021/11/20 07:48:07;;;;;;;;;;;11.40;99.90;;;;;;5009119;28;19928;-64
2021/11/20 07:50:32;;;;;;;;;;;11.40;99.90;;;;;;5007218;28;20345;-66
2021/11/20 07:52:58;;;;;;;;;;;11.40;99.90;;;;;;5008163;28;19940;-66
2021/11/20 07:55:24;;;;;;;;;;;11.40;99.90;;;;;;5008535;28;20307;-65
2021/11/20 07:57:50;;;;;;;;;;;11.30;99.90;;;;;;5009222;28;20016;-66
2021/11/20 08:00:16;;;;;;;;;;;11.20;99.90;;;;;;5009739;28;19949;-66
2021/11/20 08:02:42;;;;;;;;;;;11.20;99.90;;;;;;5007835;28;19918;-65
2021/11/20 08:05:08;;;;;;;;;;;11.20;99.90;;;;;;5008427;28;19920;-66
2021/11/20 08:07:35;;;;;;;;;;;11.10;99.90;;;;;;5009643;28;20464;-65
2021/11/20 08:10:02;;;;;;;;;;;11.20;99.90;;;;;;5005532;28;19921;-65
2021/11/20 08:12:27;;;;;;;;;;;11.20;99.90;;;;;;5007391;28;19928;-65
2021/11/20 08:14:53;;;;;;;;;;;11.10;99.90;;;;;;5008820;28;19993;-65
2021/11/20 08:17:18;;;;;;;;;;;11.10;99.90;;;;;;5009096;28;19913;-65
2021/11/20 08:19:44;;;;;;;;;;;11.20;99.90;;;;;;5008092;28;20007;-64
2021/11/20 08:22:09;;;;;;;;;;;11.30;99.90;;;;;;5008071;28;19913;-66
2021/11/20 08:24:35;;;;;;;;;;;11.30;99.90;;;;;;5007173;28;19921;-65
2021/11/20 08:27:00;;;;;;;;;;;11.30;99.90;;;;;;5008160;28;19914;-65
2021/11/20 08:29:30;;;;;;;;;;;11.40;99.90;;;;;;5012390;28;20365;-66
2021/11/20 08:31:56;;;;;;;;;;;11.40;99.90;;;;;;5015804;28;19984;-65
2021/11/20 08:34:22;;;;;;;;;;;11.30;99.90;;;;;;5010294;28;20389;-66
2021/11/20 08:36:47;;;;;;;;;;;11.20;99.90;;;;;;5019311;28;19914;-65
2021/11/20 08:39:15;;;;;;;;;;;11.20;99.90;;;;;;5012487;28;19939;-65
2021/11/20 08:41:42;;;;;;;;;;;11.20;99.90;;;;;;5007448;28;19996;-66
2021/11/20 08:44:07;;;;;;;;;;;11.20;99.90;;;;;;5008043;28;20123;-65
2021/11/20 08:46:33;;;;;;;;;;;11.20;99.90;;;;;;4991351;28;19941;-65
2021/11/20 08:48:59;;;;;;;;;;;11.20;99.90;;;;;;5009419;28;20008;-65
2021/11/20 08:51:26;;;;;;;;;;;11.20;99.90;;;;;;5007708;28;20108;-66
2021/11/20 08:53:52;;;;;;;;;;;11.20;99.90;;;;;;5007778;28;19910;-65
2021/11/20 08:56:19;;;;;;;;;;;11.20;99.90;;;;;;5007977;28;19909;-65
2021/11/20 08:58:45;;;;;;;;;;;11.30;99.90;;;;;;5001293;28;19958;-65
2021/11/20 09:01:19;;;;;;;;;;;11.30;99.90;;;;;;5024777;28;20442;-65
2021/11/20 09:03:50;;;;;;;;;;;11.30;99.90;;;;;;5020573;28;20425;-65
2021/11/20 09:06:24;;;;;;;;;;;11.40;99.90;;;;;;5008617;28;19916;-65
2021/11/20 09:08:53;;;;;;;;;;;11.30;99.90;;;;;;5008285;28;19913;-65
2021/11/20 09:11:30;;;;;;;;;;;11.30;99.90;;;;;;5008864;28;20143;-66
2021/11/20 09:13:59;;;;;;;;;;;11.30;99.90;;;;;;5020663;28;19918;-65
2021/11/20 09:16:25;;;;;;;;;;;11.30;99.90;;;;;;5017871;28;20331;-66
2021/11/20 09:18:51;;;;;;;;;;;11.20;99.90;;;;;;5009056;28;20300;-65
2021/11/20 09:21:17;;;;;;;;;;;11.30;99.90;;;;;;5012958;28;19909;-67
2021/11/20 09:23:44;;;;;;;;;;;11.40;99.90;;;;;;5008244;28;19957;-65
2021/11/20 09:26:09;;;;;;;;;;;11.40;99.90;;;;;;5010404;28;19913;-64
2021/11/20 09:28:35;;;;;;;;;;;11.30;99.90;;;;;;5027187;28;19921;-65
2021/11/20 09:31:02;;;;;;;;;;;11.30;99.90;;;;;;5007138;28;20011;-67
2021/11/20 09:33:28;;;;;;;;;;;11.30;99.90;;;;;;5010962;28;19941;-64
2021/11/20 09:35:53;;;;;;;;;;;11.40;99.90;;;;;;5012229;28;20481;-64
2021/11/20 09:38:20;;;;;;;;;;;11.40;99.90;;;;;;5011850;28;19909;-65
2021/11/20 09:40:57;;;;;;;;;;;11.40;99.90;;;;;;5016969;28;19928;-65
2021/11/20 09:43:27;;;;;;;;;;;11.30;99.90;;;;;;5027784;28;20286;-65
2021/11/20 09:46:01;;;;;;;;;;;11.30;99.90;;;;;;5027208;28;19913;-65
2021/11/20 09:48:34;;;;;;;;;;;11.30;99.90;;;;;;5016514;28;19921;-65
2021/11/20 09:51:10;;;;;;;;;;;11.40;99.90;;;;;;5011873;28;20012;-67
2021/11/20 09:53:35;;;;;;;;;;;11.40;99.90;;;;;;5008945;28;19936;-66
2021/11/20 09:56:05;;;;;;;;;;;11.30;99.90;;;;;;5014026;28;21482;-65
2021/11/20 09:58:40;;;;;;;;;;;11.30;99.90;;;;;;5008107;28;19913;-66
2021/11/20 10:01:24;;;;;;;;;;;11.40;99.90;;;;;;5005400;28;19918;-65
2021/11/20 10:03:53;;;;;;;;;;;11.30;99.90;;;;;;5003225;28;19913;-65
2021/11/20 10:06:37;;;;;;;;;;;11.40;99.90;;;;;;5006202;28;19917;-65
2021/11/20 10:09:20;;;;;;;;;;;11.40;99.90;;;;;;5005506;28;19918;-65
2021/11/20 10:12:13;;;;;;;;;;;11.40;99.90;;;;;;5008714;28;19953;-65
2021/11/20 10:14:44;;;;;;;;;;;11.40;99.90;;;;;;4982845;28;19921;-65
2021/11/20 10:17:25;;;;;;;;;;;11.50;99.90;;;;;;5009347;28;20240;-65
2021/11/20 10:19:55;;;;;;;;;;;11.50;99.90;;;;;;5005775;28;19913;-65
2021/11/20 10:22:27;;;;;;;;;;;11.40;99.90;;;;;;5004842;28;20000;-67
2021/11/20 10:25:06;;;;;;;;;;;11.50;99.90;;;;;;5006806;28;19913;-66
2021/11/20 10:27:55;;;;;;;;;;;11.40;99.90;;;;;;5008842;28;20360;-65
2021/11/20 10:30:23;;;;;;;;;;;11.50;99.90;;;;;;5008288;28;20335;-65
2021/11/20 10:32:49;;;;;;;;;;;11.50;99.90;;;;;;5008854;28;20004;-65
2021/11/20 10:35:18;;;;;;;;;;;11.50;99.90;;;;;;5010274;28;20017;-66
2021/11/20 10:37:45;;;;;;;;;;;11.40;99.90;;;;;;5011245;28;20577;-66
2021/11/20 10:40:20;;;;;;;;;;;11.40;99.90;;;;;;5009830;28;19922;-66
2021/11/20 10:42:51;;;;;;;;;;;11.50;99.90;;;;;;5008717;28;20047;-65
2021/11/20 10:45:19;;;;;;;;;;;11.50;99.90;;;;;;5008420;28;19926;-66
2021/11/20 10:47:56;;;;;;;;;;;11.50;99.90;;;;;;5008637;28;19914;-66
2021/11/20 10:50:27;;;;;;;;;;;11.40;99.90;;;;;;5011213;28;19914;-65
2021/11/20 10:53:07;;;;;;;;;;;11.40;99.90;;;;;;5008134;28;19916;-66
2021/11/20 10:55:37;;;;;;;;;;;11.40;99.90;;;;;;5009234;28;19941;-65
2021/11/20 10:58:02;;;;;;;;;;;11.50;99.90;;;;;;5005354;28;19952;-65
2021/11/20 11:00:31;;;;;;;;;;;11.40;99.90;;;;;;5008892;28;20358;-66
2021/11/20 11:03:15;;;;;;;;;;;11.50;99.90;;;;;;5008916;28;19925;-65
2021/11/20 11:05:43;;;;;;;;;;;11.50;99.90;;;;;;5011536;28;19918;-66
2021/11/20 11:08:35;;;;;;;;;;;11.50;99.90;;;;;;5010892;28;19913;-67
2021/11/20 11:11:13;;;;;;;;;;;11.50;99.90;;;;;;5009410;28;19913;-66
2021/11/20 11:13:45;;;;;;;;;;;11.50;99.90;;;;;;5012041;28;20008;-66
2021/11/20 11:16:15;;;;;;;;;;;11.50;99.90;;;;;;5002297;28;19992;-66
2021/11/20 11:18:46;;;;;;;;;;;11.50;99.90;;;;;;5003723;28;19913;-66
2021/11/20 11:21:14;;;;;;;;;;;11.50;99.90;;;;;;5009416;28;19976;-65
2021/11/20 11:23:52;;;;;;;;;;;11.60;99.90;;;;;;5010090;28;19952;-65
2021/11/20 11:26:17;;;;;;;;;;;11.60;99.90;;;;;;5023187;28;19920;-65
2021/11/20 11:28:55;;;;;;;;;;;11.60;99.90;;;;;;5007908;28;19918;-66
2021/11/20 11:31:26;;;;;;;;;;;11.60;99.90;;;;;;5005540;28;20028;-65
2021/11/20 11:34:03;;;;;;;;;;;11.60;99.90;;;;;;4998582;28;19914;-65
2021/11/20 11:36:31;;;;;;;;;;;11.50;99.90;;;;;;5002676;28;20021;-66
2021/11/20 11:39:15;;;;;;;;;;;11.50;99.90;;;;;;5003026;28;19960;-66
2021/11/20 11:41:56;;;;;;;;;;;11.50;99.90;;;;;;5006336;28;19927;-67
2021/11/20 11:44:28;;;;;;;;;;;11.60;99.90;;;;;;5002160;28;20031;-66
2021/11/20 11:46:55;;;;;;;;;;;11.60;99.90;;;;;;5003687;28;19920;-65
2021/11/20 11:49:20;;;;;;;;;;;11.70;99.90;;;;;;5004521;28;19918;-66
2021/11/20 11:51:55;;;;;;;;;;;11.70;99.90;;;;;;5004864;28;19921;-65
2021/11/20 11:54:20;;;;;;;;;;;11.60;99.90;;;;;;4972672;28;20004;-65
2021/11/20 11:56:47;;;;;;;;;;;11.60;99.90;;;;;;5005456;28;20012;-64
2021/11/20 11:59:25;;;;;;;;;;;11.70;99.90;;;;;;5004663;28;19917;-65
2021/11/20 12:01:53;;;;;;;;;;;11.70;99.90;;;;;;5007441;28;19913;-65
2021/11/20 12:04:34;;;;;;;;;;;11.70;99.90;;;;;;5010722;28;19913;-64
2021/11/20 12:07:11;;;;;;;;;;;11.70;99.90;;;;;;5009246;28;19910;-64
2021/11/20 12:09:45;;;;;;;;;;;11.60;99.90;;;;;;5009934;28;19921;-66
2021/11/20 12:12:13;;;;;;;;;;;11.60;99.90;;;;;;5015170;28;19913;-65
2021/11/20 12:14:41;;;;;;;;;;;11.60;99.90;;;;;;5017190;28;19964;-67
2021/11/20 12:17:27;;;;;;;;;;;11.60;99.90;;;;;;5012314;28;20333;-66
2021/11/20 12:20:06;;;;;;;;;;;11.60;99.90;;;;;;5016811;28;19917;-65
2021/11/20 12:22:53;;;;;;;;;;;11.60;99.90;;;;;;5023739;28;19956;-65
2021/11/20 12:25:25;;;;;;;;;;;11.50;99.90;;;;;;4978655;28;19914;-66
2021/11/20 12:27:56;;;;;;;;;;;11.50;99.90;;;;;;5006840;28;20418;-67
2021/11/20 12:30:22;;;;;;;;;;;11.50;99.90;;;;;;5006454;28;19913;-67
2021/11/20 12:33:06;;;;;;;;;;;11.50;99.90;;;;;;5004974;28;19928;-65
2021/11/20 12:35:31;;;;;;;;;;;11.60;99.90;;;;;;5004988;28;19967;-67
2021/11/20 12:38:00;;;;;;;;;;;11.70;99.90;;;;;;5006705;28;20288;-65
2021/11/20 12:40:39;;;;;;;;;;;11.70;99.90;;;;;;5007206;28;19968;-66
2021/11/20 12:43:20;;;;;;;;;;;11.70;99.90;;;;;;5012074;28;19977;-65
2021/11/20 12:45:46;;;;;;;;;;;11.60;99.90;;;;;;5012155;28;19971;-66
2021/11/20 12:48:30;;;;;;;;;;;11.50;99.90;;;;;;5020889;28;19961;-66
2021/11/20 12:50:58;;;;;;;;;;;11.40;99.90;;;;;;5025140;28;19920;-64
2021/11/20 12:53:26;;;;;;;;;;;11.40;99.90;;;;;;5028381;28;19917;-66
2021/11/20 12:56:07;;;;;;;;;;;11.40;99.90;;;;;;5028119;28;20016;-66
2021/11/20 12:58:40;;;;;;;;;;;11.40;99.90;;;;;;5028528;28;20365;-66
2021/11/20 13:01:10;;;;;;;;;;;11.40;99.90;;;;;;5007860;28;20370;-67
2021/11/20 13:03:37;;;;;;;;;;;11.40;99.90;;;;;;5015649;28;19921;-66
2021/11/20 13:06:07;;;;;;;;;;;11.50;99.90;;;;;;5008544;28;20286;-64
2021/11/20 13:08:41;;;;;;;;;;;11.50;99.90;;;;;;5009218;28;19979;-66
2021/11/20 13:11:08;;;;;;;;;;;11.40;99.90;;;;;;5028816;28;19923;-65
2021/11/20 13:13:39;;;;;;;;;;;11.40;99.90;;;;;;5018626;28;19949;-65
2021/11/20 13:16:24;;;;;;;;;;;11.40;99.90;;;;;;4987512;28;19937;-66
2021/11/20 13:19:15;;;;;;;;;;;11.50;99.90;;;;;;4988820;28;20017;-66
2021/11/20 13:21:43;;;;;;;;;;;11.50;99.90;;;;;;4991628;28;19962;-65
2021/11/20 13:24:11;;;;;;;;;;;11.40;99.90;;;;;;5009712;28;19909;-66
2021/11/20 13:26:55;;;;;;;;;;;11.30;99.90;;;;;;5006961;28;19941;-66
2021/11/20 13:29:20;;;;;;;;;;;11.20;99.90;;;;;;5008866;28;19924;-66
2021/11/20 13:31:46;;;;;;;;;;;11.20;99.90;;;;;;5010928;28;19917;-65
2021/11/20 13:34:11;;;;;;;;;;;11.20;99.90;;;;;;5009149;28;19914;-66
2021/11/20 13:36:37;;;;;;;;;;;11.20;99.90;;;;;;5010192;28;20378;-66
2021/11/20 13:39:05;;;;;;;;;;;11.20;99.90;;;;;;5007911;28;20468;-67
2021/11/20 13:41:31;;;;;;;;;;;11.30;99.90;;;;;;4989712;28;19920;-65
2021/11/20 13:43:56;;;;;;;;;;;11.30;99.90;;;;;;5004880;28;20173;-66
2021/11/20 13:46:22;;;;;;;;;;;11.30;99.90;;;;;;5007484;28;20297;-68
2021/11/20 13:48:52;;;;;;;;;;;11.20;99.90;;;;;;5007477;28;19918;-67
2021/11/20 13:51:21;;;;;;;;;;;11.10;99.90;;;;;;5006751;28;19914;-64
2021/11/20 13:53:51;;;;;;;;;;;11.10;99.90;;;;;;5006903;28;19914;-64
2021/11/20 13:56:17;;;;;;;;;;;11.10;99.90;;;;;;5007948;28;20304;-66
2021/11/20 13:58:43;;;;;;;;;;;11.10;99.90;;;;;;5013227;28;19956;-64
2021/11/20 14:01:16;;;;;;;;;;;11.00;99.90;;;;;;5030484;28;20458;-65
2021/11/20 14:04:11;;;;;;;;;;;11.00;99.90;;;;;;5011960;28;19960;-65
2021/11/20 14:06:36;;;;;;;;;;;11.00;99.90;;;;;;4994668;28;19925;-66
2021/11/20 14:09:06;;;;;;;;;;;11.00;99.90;;;;;;5028869;28;19921;-67
2021/11/20 14:11:32;;;;;;;;;;;11.00;99.90;;;;;;5031454;28;20619;-66
2021/11/20 14:13:59;;;;;;;;;;;11.10;99.90;;;;;;5017330;28;20002;-68
2021/11/20 14:16:32;;;;;;;;;;;11.10;99.90;;;;;;5021601;28;20010;-65
2021/11/20 14:18:58;;;;;;;;;;;11.20;99.90;;;;;;5031634;28;19909;-67
2021/11/20 14:21:26;;;;;;;;;;;11.20;99.90;;;;;;5031583;28;19916;-65
2021/11/20 14:23:56;;;;;;;;;;;11.10;99.90;;;;;;5030804;28;19924;-65
2021/11/20 14:26:22;;;;;;;;;;;11.00;99.90;;;;;;5012049;28;20008;-66
2021/11/20 14:28:47;;;;;;;;;;;11.10;99.90;;;;;;5010860;28;20019;-66
2021/11/20 14:31:15;;;;;;;;;;;11.00;99.90;;;;;;5011922;28;19913;-65